createdAt,value
2018-02-03T00:01:09.495Z,97020.27
2018-02-03T00:03:37.159Z,97016.98
2018-02-03T00:06:04.830Z,97017.53
2018-02-03T00:08:32.598Z,97020.44
2018-02-03T00:11:00.270Z,97015.05
2018-02-03T00:13:27.969Z,97014.16
2018-02-03T00:15:55.644Z,97008.03
2018-02-03T00:18:23.352Z,97003.96
2018-02-03T00:20:51.040Z,97007.83
2018-02-03T00:23:18.723Z,97010.41
2018-02-03T00:25:46.420Z,97016.33
2018-02-03T00:28:14.097Z,97018.92
2018-02-03T00:30:41.800Z,97013.92
2018-02-03T00:33:09.488Z,97013.15
2018-02-03T00:35:37.362Z,97017.01
2018-02-03T00:38:05.113Z,97016.04
2018-02-03T00:40:32.796Z,97009.12
2018-02-03T00:43:00.501Z,97016.34
2018-02-03T00:45:29.030Z,97010.92
2018-02-03T00:47:56.760Z,97016.66
2018-02-03T00:50:24.439Z,97019.39
2018-02-03T00:52:52.168Z,97021.39
2018-02-03T00:55:19.881Z,97020.12
2018-02-03T00:57:47.592Z,97014.57
2018-02-03T01:00:15.282Z,97017.60
2018-02-03T01:02:42.993Z,97019.95
2018-02-03T01:05:10.691Z,97019.88
2018-02-03T01:07:38.724Z,97022.51
2018-02-03T01:10:06.367Z,97023.70
2018-02-03T01:12:34.051Z,97016.88
2018-02-03T01:15:01.775Z,97022.72
2018-02-03T01:17:29.561Z,97014.16
2018-02-03T01:19:57.261Z,97016.62
2018-02-03T01:22:24.943Z,97005.41
2018-02-03T01:24:52.852Z,97009.95
2018-02-03T01:27:20.530Z,97009.23
2018-02-03T01:29:48.213Z,97006.55
2018-02-03T01:32:15.934Z,97007.03
2018-02-03T01:34:43.611Z,97010.63
2018-02-03T01:37:11.324Z,97004.76
2018-02-03T01:39:38.985Z,96997.44
2018-02-03T01:42:06.792Z,96999.02
2018-02-03T01:44:34.473Z,96994.58
2018-02-03T01:47:02.147Z,97003.16
2018-02-03T01:49:29.854Z,96996.47
2018-02-03T01:51:57.525Z,96999.31
2018-02-03T01:54:25.218Z,96998.53
2018-02-03T01:56:52.910Z,97000.80
2018-02-03T01:59:20.959Z,97002.09
2018-02-03T02:01:48.647Z,97001.28
2018-02-03T02:04:16.327Z,96998.44
2018-02-03T02:06:44.036Z,96990.72
2018-02-03T02:09:11.707Z,96988.30
2018-02-03T02:11:39.428Z,96984.80
2018-02-03T02:14:07.100Z,96970.91
2018-02-03T02:16:34.794Z,96972.33
2018-02-03T02:19:02.470Z,96976.86
2018-02-03T02:21:30.307Z,96974.45
2018-02-03T02:23:57.995Z,96974.97
2018-02-03T02:26:25.663Z,96973.98
2018-02-03T02:28:53.405Z,96971.80
2018-02-03T02:31:21.000Z,96968.89
2018-02-03T02:33:48.708Z,96966.22
2018-02-03T02:36:16.399Z,96961.32
2018-02-03T02:38:44.116Z,96951.88
2018-02-03T02:41:11.792Z,96944.77
2018-02-03T02:43:39.503Z,96950.79
2018-02-03T02:46:07.142Z,96950.56
2018-02-03T02:48:34.816Z,96945.62
2018-02-03T02:51:02.511Z,96946.92
2018-02-03T02:53:30.188Z,96943.01
2018-02-03T02:55:58.092Z,96943.58
2018-02-03T02:58:25.771Z,96944.42
2018-02-03T03:00:53.431Z,96948.78
2018-02-03T03:03:21.136Z,96943.16
2018-02-03T03:05:48.812Z,96942.34
2018-02-03T03:08:16.505Z,96946.94
2018-02-03T03:10:44.190Z,96942.97
2018-02-03T03:13:12.141Z,96947.58
2018-02-03T03:15:39.815Z,96939.96
2018-02-03T03:18:07.492Z,96939.95
2018-02-03T03:20:36.326Z,96943.09
2018-02-03T03:23:04.008Z,96938.00
2018-02-03T03:25:31.787Z,96936.72
2018-02-03T03:27:59.468Z,96933.50
2018-02-03T03:30:27.203Z,96938.11
2018-02-03T03:32:54.951Z,96936.03
2018-02-03T03:35:22.765Z,96938.61
2018-02-03T03:37:50.471Z,96931.63
2018-02-03T03:40:18.138Z,96928.75
2018-02-03T03:42:45.870Z,96935.48
2018-02-03T03:45:13.564Z,96926.00
2018-02-03T03:47:41.272Z,96924.98
2018-02-03T03:50:08.973Z,96921.05
2018-02-03T03:52:36.651Z,96922.20
2018-02-03T03:55:04.354Z,96925.22
2018-02-03T03:57:32.042Z,96927.23
2018-02-03T03:59:59.727Z,96924.58
2018-02-03T04:02:27.397Z,96924.82
2018-02-03T04:04:55.070Z,96932.55
2018-02-03T04:07:22.767Z,96937.40
2018-02-03T04:09:50.452Z,96929.25
2018-02-03T04:12:18.307Z,96935.68
2018-02-03T04:14:45.972Z,96927.74
2018-02-03T04:17:13.652Z,96933.66
2018-02-03T04:19:41.352Z,96933.23
2018-02-03T04:22:09.919Z,96930.44
2018-02-03T04:24:37.650Z,96929.36
2018-02-03T04:27:05.304Z,96929.52
2018-02-03T04:29:33.139Z,96928.06
2018-02-03T04:32:00.811Z,96930.11
2018-02-03T04:34:28.488Z,96935.13
2018-02-03T04:36:56.173Z,96940.20
2018-02-03T04:39:23.846Z,96940.46
2018-02-03T04:41:51.544Z,96938.48
2018-02-03T04:44:19.223Z,96932.39
2018-02-03T04:46:46.939Z,96931.59
2018-02-03T04:49:14.748Z,96928.65
2018-02-03T04:51:42.413Z,96931.78
2018-02-03T04:54:10.107Z,96929.89
2018-02-03T04:56:37.769Z,96929.39
2018-02-03T04:59:05.459Z,96926.31
2018-02-03T05:01:33.129Z,96923.05
2018-02-03T05:04:01.034Z,96924.61
2018-02-03T05:06:28.695Z,96921.73
2018-02-03T05:08:56.379Z,96924.03
2018-02-03T05:11:24.070Z,96923.75
2018-02-03T05:13:51.748Z,96918.41
2018-02-03T05:16:19.718Z,96927.42
2018-02-03T05:18:47.387Z,96921.83
2018-02-03T05:21:15.076Z,96924.47
2018-02-03T05:23:42.766Z,96932.91
2018-02-03T05:26:10.440Z,96933.66
2018-02-03T05:28:38.123Z,96932.66
2018-02-03T05:31:05.789Z,96927.92
2018-02-03T05:33:33.503Z,96925.12
2018-02-03T05:36:01.198Z,96923.64
2018-02-03T05:38:28.867Z,96917.84
2018-02-03T05:40:56.576Z,96919.84
2018-02-03T05:43:24.256Z,96911.52
2018-02-03T05:45:51.944Z,96907.80
2018-02-03T05:48:19.621Z,96910.39
2018-02-03T05:50:47.647Z,96910.71
2018-02-03T05:53:15.320Z,96921.21
2018-02-03T05:55:42.997Z,96917.66
2018-02-03T05:58:10.680Z,96921.75
2018-02-03T06:00:38.343Z,96925.78
2018-02-03T06:03:06.036Z,96924.36
2018-02-03T06:05:33.805Z,96926.34
2018-02-03T06:08:01.517Z,96930.34
2018-02-03T06:10:29.177Z,96928.73
2018-02-03T06:12:56.847Z,96925.72
2018-02-03T06:15:24.844Z,96926.03
2018-02-03T06:17:52.509Z,96934.14
2018-02-03T06:20:20.298Z,96938.05
2018-02-03T06:22:48.057Z,96927.99
2018-02-03T06:25:15.810Z,96934.94
2018-02-03T06:27:43.486Z,96942.59
2018-02-03T06:30:11.160Z,96937.04
2018-02-03T06:32:39.074Z,96935.22
2018-02-03T06:35:06.776Z,96933.92
2018-02-03T06:37:34.721Z,96931.52
2018-02-03T06:40:02.439Z,96929.13
2018-02-03T06:42:31.180Z,96929.50
2018-02-03T06:44:58.881Z,96929.63
2018-02-03T06:47:26.559Z,96923.42
2018-02-03T06:49:54.250Z,96923.13
2018-02-03T06:52:21.929Z,96924.64
2018-02-03T06:54:49.737Z,96932.71
2018-02-03T06:57:17.588Z,96934.77
2018-02-03T06:59:45.861Z,96932.72
2018-02-03T07:02:13.530Z,96943.03
2018-02-03T07:04:41.252Z,96939.14
2018-02-03T07:07:09.042Z,96938.06
2018-02-03T07:09:36.980Z,96939.50
2018-02-03T07:12:04.675Z,96941.98
2018-02-03T07:14:32.350Z,96936.53
2018-02-03T07:17:00.067Z,96937.69
2018-02-03T07:19:27.738Z,96942.81
2018-02-03T07:21:55.415Z,96945.91
2018-02-03T07:24:23.094Z,96942.12
2018-02-03T07:26:50.757Z,96949.20
2018-02-03T07:29:18.497Z,96940.24
2018-02-03T07:31:46.168Z,96943.50
2018-02-03T07:34:13.906Z,96943.70
2018-02-03T07:36:41.577Z,96944.33
2018-02-03T07:39:09.250Z,96941.41
2018-02-03T07:41:36.952Z,96933.44
2018-02-03T07:44:04.626Z,96933.95
2018-02-03T07:46:32.320Z,96933.12
2018-02-03T07:48:59.985Z,96935.11
2018-02-03T07:51:27.885Z,96929.66
2018-02-03T07:53:55.553Z,96928.45
2018-02-03T07:56:23.243Z,96924.80
2018-02-03T07:58:50.929Z,96927.66
2018-02-03T08:01:18.596Z,96929.33
2018-02-03T08:03:46.287Z,96922.44
2018-02-03T08:06:13.952Z,96926.91
2018-02-03T08:08:41.833Z,96919.66
2018-02-03T08:11:09.496Z,96928.64
2018-02-03T08:13:37.157Z,96927.99
2018-02-03T08:16:04.852Z,96922.77
2018-02-03T08:18:32.519Z,96914.37
2018-02-03T08:21:00.217Z,96910.41
2018-02-03T08:23:27.897Z,96917.75
2018-02-03T08:25:55.625Z,96924.92
2018-02-03T08:28:23.332Z,96925.38
2018-02-03T08:30:51.012Z,96934.31
2018-02-03T08:33:18.713Z,96934.71
2018-02-03T08:35:46.381Z,96934.31
2018-02-03T08:38:14.075Z,96928.58
2018-02-03T08:40:41.741Z,96932.64
2018-02-03T08:43:09.460Z,96935.17
2018-02-03T08:45:37.126Z,96926.25
2018-02-03T08:48:04.796Z,96924.59
2018-02-03T08:50:32.493Z,96927.53
2018-02-03T08:53:00.173Z,96925.30
2018-02-03T08:55:27.881Z,96921.66
2018-02-03T08:57:55.583Z,96916.42
2018-02-03T09:00:23.656Z,96927.14
2018-02-03T09:02:51.418Z,96923.05
2018-02-03T09:05:19.100Z,96920.75
2018-02-03T09:07:46.792Z,96919.63
2018-02-03T09:10:14.475Z,96912.66
2018-02-03T09:12:42.181Z,96913.79
2018-02-03T09:15:09.851Z,96918.55
2018-02-03T09:17:37.596Z,96918.91
2018-02-03T09:20:05.256Z,96917.76
2018-02-03T09:22:32.938Z,96908.17
2018-02-03T09:25:00.633Z,96916.61
2018-02-03T09:27:28.306Z,96911.48
2018-02-03T09:29:55.999Z,96907.77
2018-02-03T09:32:23.695Z,96910.95
2018-02-03T09:34:51.740Z,96912.78
2018-02-03T09:37:19.424Z,96917.76
2018-02-03T09:39:47.105Z,96911.27
2018-02-03T09:42:14.788Z,96917.11
2018-02-03T09:44:42.451Z,96912.17
2018-02-03T09:47:10.238Z,96917.44
2018-02-03T09:49:37.969Z,96912.35
2018-02-03T09:52:05.998Z,96919.31
2018-02-03T09:54:33.692Z,96912.81
2018-02-03T09:57:01.405Z,96912.41
2018-02-03T09:59:29.107Z,96906.11
2018-02-03T10:01:56.785Z,96911.20
2018-02-03T10:04:24.514Z,96914.29
2018-02-03T10:06:52.216Z,96912.63
2018-02-03T10:09:20.063Z,96912.53
2018-02-03T10:11:47.744Z,96903.95
2018-02-03T10:14:15.411Z,96904.28
2018-02-03T10:16:43.127Z,96901.64
2018-02-03T10:19:10.811Z,96901.00
2018-02-03T10:21:38.515Z,96897.64
2018-02-03T10:24:06.201Z,96895.87
2018-02-03T10:26:34.381Z,96892.52
2018-02-03T10:29:02.070Z,96893.20
2018-02-03T10:31:29.748Z,96894.41
2018-02-03T10:33:57.454Z,96900.95
2018-02-03T10:36:25.133Z,96892.75
2018-02-03T10:38:52.861Z,96891.39
2018-02-03T10:41:20.519Z,96897.66
2018-02-03T10:43:48.192Z,96886.97
2018-02-03T10:46:15.896Z,96886.95
2018-02-03T10:48:43.579Z,96878.33
2018-02-03T10:51:11.300Z,96878.05
2018-02-03T10:53:39.060Z,96879.31
2018-02-03T10:56:06.731Z,96871.86
2018-02-03T10:58:34.435Z,96869.83
2018-02-03T11:01:07.657Z,96873.88
2018-02-03T11:03:35.460Z,96870.56
2018-02-03T11:06:03.146Z,96871.47
2018-02-03T11:08:30.852Z,96875.28
2018-02-03T11:10:58.527Z,96871.51
2018-02-03T11:13:26.517Z,96871.76
2018-02-03T11:15:54.184Z,96869.78
2018-02-03T11:18:21.850Z,96869.08
2018-02-03T11:20:49.589Z,96869.74
2018-02-03T11:23:17.252Z,96864.73
2018-02-03T11:25:44.940Z,96860.80
2018-02-03T11:28:12.609Z,96859.42
2018-02-03T11:30:40.337Z,96851.50
2018-02-03T11:33:08.003Z,96853.11
2018-02-03T11:35:35.693Z,96835.07
2018-02-03T11:38:03.399Z,96831.02
2018-02-03T11:40:31.064Z,96828.13
2018-02-03T11:42:58.757Z,96819.90
2018-02-03T11:45:26.426Z,96824.31
2018-02-03T11:47:54.303Z,96819.84
2018-02-03T11:50:21.971Z,96825.63
2018-02-03T11:52:49.648Z,96831.64
2018-02-03T11:55:17.335Z,96825.73
2018-02-03T11:57:45.008Z,96821.67
2018-02-03T12:00:12.634Z,96822.44
2018-02-03T12:02:40.300Z,96829.81
2018-02-03T12:05:07.991Z,96822.72
2018-02-03T12:07:35.684Z,96831.84
2018-02-03T12:10:03.395Z,96833.33
2018-02-03T12:12:31.078Z,96831.00
2018-02-03T12:14:58.737Z,96826.05
2018-02-03T12:17:26.435Z,96828.13
2018-02-03T12:19:54.096Z,96823.84
2018-02-03T12:22:21.781Z,96826.29
2018-02-03T12:24:49.454Z,96831.64
2018-02-03T12:27:17.172Z,96846.08
2018-02-03T12:29:44.993Z,96862.03
2018-02-03T12:32:12.713Z,96857.16
2018-02-03T12:34:40.403Z,96852.84
2018-02-03T12:37:08.070Z,96847.46
2018-02-03T12:39:37.222Z,96851.29
2018-02-03T12:42:04.903Z,96854.20
2018-02-03T12:44:32.619Z,96841.62
2018-02-03T12:47:00.317Z,96839.06
2018-02-03T12:49:27.984Z,96836.22
2018-02-03T12:51:55.679Z,96831.37
2018-02-03T12:54:23.341Z,96837.51
2018-02-03T12:56:51.030Z,96829.78
2018-02-03T12:59:18.706Z,96826.16
2018-02-03T13:01:46.698Z,96827.59
2018-02-03T13:04:14.368Z,96827.67
2018-02-03T13:06:42.032Z,96826.41
2018-02-03T13:09:10.545Z,96828.86
2018-02-03T13:11:38.202Z,96825.95
2018-02-03T13:14:05.907Z,96821.47
2018-02-03T13:16:33.588Z,96820.47
2018-02-03T13:19:01.525Z,96828.30
2018-02-03T13:21:29.195Z,96835.42
2018-02-03T13:23:56.861Z,96834.08
2018-02-03T13:26:24.557Z,96830.77
2018-02-03T13:28:52.257Z,96840.11
2018-02-03T13:31:19.947Z,96839.06
2018-02-03T13:33:47.662Z,96847.31
2018-02-03T13:36:15.607Z,96841.60
2018-02-03T13:38:43.279Z,96841.95
2018-02-03T13:41:10.957Z,96844.98
2018-02-03T13:43:38.692Z,96850.74
2018-02-03T13:46:06.360Z,96844.63
2018-02-03T13:48:34.096Z,96846.09
2018-02-03T13:51:01.817Z,96852.36
2018-02-03T13:53:29.816Z,96854.71
2018-02-03T13:55:57.538Z,96855.45
2018-02-03T13:58:25.224Z,96851.25
2018-02-03T14:00:52.924Z,96854.63
2018-02-03T14:03:20.598Z,96846.24
2018-02-03T14:05:48.351Z,96854.89
2018-02-03T14:08:16.021Z,96856.38
2018-02-03T14:10:43.895Z,96851.58
2018-02-03T14:13:11.589Z,96850.99
2018-02-03T14:15:39.284Z,96850.78
2018-02-03T14:18:06.979Z,96849.48
2018-02-03T14:20:34.648Z,96845.59
2018-02-03T14:23:02.362Z,96848.97
2018-02-03T14:25:30.040Z,96843.57
2018-02-03T14:27:57.729Z,96844.05
2018-02-03T14:30:25.454Z,96840.80
2018-02-03T14:32:53.397Z,96841.64
2018-02-03T14:35:21.136Z,96844.22
2018-02-03T14:37:48.800Z,96846.41
2018-02-03T14:40:16.511Z,96843.70
2018-02-03T14:42:44.191Z,96846.57
2018-02-03T14:45:11.901Z,96850.38
2018-02-03T14:47:39.584Z,96844.86
2018-02-03T14:50:07.429Z,96851.39
2018-02-03T14:52:35.100Z,96849.55
2018-02-03T14:55:02.789Z,96856.98
2018-02-03T14:57:30.484Z,96853.98
2018-02-03T14:59:58.193Z,96848.44
2018-02-03T15:02:25.891Z,96846.50
2018-02-03T15:04:53.575Z,96853.41
2018-02-03T15:07:21.506Z,96846.02
2018-02-03T15:09:49.182Z,96853.02
2018-02-03T15:12:16.851Z,96845.59
2018-02-03T15:14:44.634Z,96849.53
2018-02-03T15:17:12.320Z,96849.08
2018-02-03T15:19:40.011Z,96848.14
2018-02-03T15:22:07.712Z,96851.69
2018-02-03T15:24:35.836Z,96859.72
2018-02-03T15:27:03.503Z,96857.95
2018-02-03T15:29:31.183Z,96857.05
2018-02-03T15:31:58.872Z,96859.87
2018-02-03T15:34:26.580Z,96855.50
2018-02-03T15:36:54.468Z,96857.69
2018-02-03T15:39:22.164Z,96863.69
2018-02-03T15:41:49.845Z,96860.94
2018-02-03T15:44:17.623Z,96867.38
2018-02-03T15:46:45.308Z,96866.62
2018-02-03T15:49:13.016Z,96870.27
2018-02-03T15:51:40.714Z,96871.25
2018-02-03T15:54:08.409Z,96871.40
2018-02-03T15:56:36.091Z,96870.25
2018-02-03T15:59:03.834Z,96874.64
2018-02-03T16:01:31.564Z,96873.56
2018-02-03T16:03:59.260Z,96872.48
2018-02-03T16:06:27.016Z,96878.75
2018-02-03T16:08:54.711Z,96877.38
2018-02-03T16:11:22.382Z,96884.17
2018-02-03T16:13:50.078Z,96880.17
2018-02-03T16:16:17.745Z,96884.37
2018-02-03T16:18:45.435Z,96886.71
2018-02-03T16:21:13.120Z,96887.83
2018-02-03T16:23:40.837Z,96902.23
2018-02-03T16:26:08.515Z,96895.34
2018-02-03T16:28:36.215Z,96888.48
2018-02-03T16:31:03.928Z,96890.52
2018-02-03T16:33:31.636Z,96893.19
2018-02-03T16:35:59.433Z,96890.25
2018-02-03T16:38:27.195Z,96885.86
2018-02-03T16:40:54.875Z,96892.06
2018-02-03T16:43:22.574Z,96891.19
2018-02-03T16:45:50.264Z,96896.23
2018-02-03T16:48:18.243Z,96896.44
2018-02-03T16:50:45.913Z,96900.45
2018-02-03T16:53:13.597Z,96893.89
2018-02-03T16:55:41.495Z,96898.44
2018-02-03T16:58:09.191Z,96903.62
2018-02-03T17:00:36.892Z,96896.97
2018-02-03T17:03:04.589Z,96908.50
2018-02-03T17:05:32.305Z,96908.02
2018-02-03T17:07:59.992Z,96907.45
2018-02-03T17:10:27.663Z,96911.56
2018-02-03T17:12:55.367Z,96917.80
2018-02-03T17:15:23.047Z,96920.11
2018-02-03T17:17:50.728Z,96924.02
2018-02-03T17:20:18.398Z,96927.88
2018-02-03T17:22:46.276Z,96932.64
2018-02-03T17:25:13.957Z,96931.65
2018-02-03T17:27:41.639Z,96940.47
2018-02-03T17:30:09.369Z,96937.83
2018-02-03T17:32:37.034Z,96938.50
2018-02-03T17:35:04.769Z,96937.47
2018-02-03T17:37:37.924Z,96936.98
2018-02-03T17:40:05.618Z,96934.88
2018-02-03T17:42:33.279Z,96936.72
2018-02-03T17:45:06.536Z,96934.91
2018-02-03T17:47:34.199Z,96930.51
2018-02-03T17:50:01.867Z,96934.00
2018-02-03T17:52:29.589Z,96939.11
2018-02-03T17:54:57.283Z,96932.27
2018-02-03T17:57:30.666Z,96935.45
2018-02-03T17:59:58.343Z,96938.17
2018-02-03T18:02:26.039Z,96944.44
2018-02-03T18:04:53.736Z,96944.61
2018-02-03T18:07:21.435Z,96945.34
2018-02-03T18:09:49.110Z,96958.08
2018-02-03T18:12:17.233Z,96952.03
2018-02-03T18:14:44.930Z,96957.12
2018-02-03T18:17:12.614Z,96957.82
2018-02-03T18:19:40.302Z,96960.33
2018-02-03T18:22:07.963Z,96963.88
2018-02-03T18:24:35.665Z,96960.02
2018-02-03T18:27:03.333Z,96962.80
2018-02-03T18:29:31.062Z,96957.23
2018-02-03T18:31:58.730Z,96961.63
2018-02-03T18:34:26.398Z,96964.30
2018-02-03T18:36:54.102Z,96964.95
2018-02-03T18:39:21.810Z,96961.70
2018-02-03T18:41:49.516Z,96963.12
2018-02-03T18:44:17.196Z,96965.55
2018-02-03T18:46:45.007Z,96962.28
2018-02-03T18:49:12.781Z,96968.38
2018-02-03T18:51:40.488Z,96966.37
2018-02-03T18:54:08.170Z,96969.43
2018-02-03T18:56:35.840Z,96975.08
2018-02-03T18:59:03.712Z,96979.33
2018-02-03T19:01:31.512Z,96977.05
2018-02-03T19:03:59.188Z,96980.70
2018-02-03T19:06:26.876Z,96984.77
2018-02-03T19:08:54.545Z,96982.53
2018-02-03T19:11:22.252Z,96993.84
2018-02-03T19:13:49.950Z,96980.28
2018-02-03T19:16:17.807Z,96991.95
2018-02-03T19:18:45.515Z,96986.55
2018-02-03T19:21:13.258Z,96995.58
2018-02-03T19:23:40.960Z,96994.14
2018-02-03T19:26:08.627Z,96990.36
2018-02-03T19:28:36.335Z,96994.98
2018-02-03T19:31:04.007Z,96996.14
2018-02-03T19:33:31.740Z,96997.08
2018-02-03T19:35:59.423Z,96998.13
2018-02-03T19:38:27.100Z,96996.94
2018-02-03T19:40:54.807Z,97004.05
2018-02-03T19:43:22.490Z,97008.61
2018-02-03T19:45:50.459Z,97007.14
2018-02-03T19:48:18.163Z,97005.06
2018-02-03T19:50:45.850Z,97010.35
2018-02-03T19:53:13.557Z,97005.78
2018-02-03T19:55:41.277Z,97012.63
2018-02-03T19:58:08.991Z,97015.06
2018-02-03T20:00:36.655Z,97013.62
2018-02-03T20:03:04.486Z,97022.09
2018-02-03T20:05:32.176Z,97018.84
2018-02-03T20:07:59.876Z,97015.36
2018-02-03T20:10:27.574Z,97023.56
2018-02-03T20:12:55.310Z,97025.23
2018-02-03T20:15:22.997Z,97030.30
2018-02-03T20:17:50.682Z,97029.31
2018-02-03T20:20:18.423Z,97032.53
2018-02-03T20:22:46.104Z,97032.67
2018-02-03T20:25:13.913Z,97035.16
2018-02-03T20:27:41.654Z,97038.14
2018-02-03T20:30:09.334Z,97043.14
2018-02-03T20:32:37.032Z,97039.84
2018-02-03T20:35:04.722Z,97039.28
2018-02-03T20:37:32.611Z,97043.56
2018-02-03T20:40:00.304Z,97048.70
2018-02-03T20:42:27.983Z,97054.17
2018-02-03T20:44:55.681Z,97052.87
2018-02-03T20:47:23.351Z,97052.31
2018-02-03T20:49:51.072Z,97056.71
2018-02-03T20:52:18.936Z,97058.87
2018-02-03T20:54:46.721Z,97061.82
2018-02-03T20:57:14.398Z,97062.36
2018-02-03T20:59:42.118Z,97060.27
2018-02-03T21:02:09.816Z,97061.41
2018-02-03T21:04:37.506Z,97062.80
2018-02-03T21:07:05.222Z,97065.52
2018-02-03T21:09:32.911Z,97068.78
2018-02-03T21:12:00.647Z,97072.94
2018-02-03T21:14:28.316Z,97067.25
2018-02-03T21:16:56.114Z,97074.71
2018-02-03T21:19:23.805Z,97073.38
2018-02-03T21:21:51.484Z,97080.61
2018-02-03T21:24:19.640Z,97070.14
2018-02-03T21:26:47.319Z,97080.38
2018-02-03T21:29:15.005Z,97077.31
2018-02-03T21:31:42.707Z,97080.69
2018-02-03T21:34:10.398Z,97081.37
2018-02-03T21:36:38.113Z,97081.56
2018-02-03T21:39:05.778Z,97082.10
2018-02-03T21:41:33.561Z,97081.22
2018-02-03T21:44:01.245Z,97082.47
2018-02-03T21:46:28.923Z,97084.44
2018-02-03T21:48:56.630Z,97085.78
2018-02-03T21:51:24.314Z,97090.42
2018-02-03T21:53:52.019Z,97087.96
2018-02-03T21:56:19.744Z,97086.69
2018-02-03T21:58:47.770Z,97088.38
2018-02-03T22:01:15.456Z,97090.98
2018-02-03T22:03:43.207Z,97099.09
2018-02-03T22:06:10.900Z,97098.00
2018-02-03T22:08:38.587Z,97098.13
2018-02-03T22:11:06.278Z,97096.19
2018-02-03T22:13:33.956Z,97102.94
2018-02-03T22:16:01.685Z,97108.06
2018-02-03T22:18:29.355Z,97104.31
2018-02-03T22:20:57.044Z,97106.48
2018-02-03T22:23:24.736Z,97110.33
2018-02-03T22:25:52.433Z,97116.23
2018-02-03T22:28:20.125Z,97118.27
2018-02-03T22:30:47.809Z,97118.14
2018-02-03T22:33:15.996Z,97116.81
2018-02-03T22:35:43.675Z,97118.70
2018-02-03T22:38:11.362Z,97116.17
2018-02-03T22:40:39.065Z,97120.69
2018-02-03T22:43:08.193Z,97118.77
2018-02-03T22:45:35.905Z,97125.33
2018-02-03T22:48:03.576Z,97129.63
2018-02-03T22:50:31.349Z,97127.21
2018-02-03T22:52:59.028Z,97129.61
2018-02-03T22:55:26.706Z,97134.42
2018-02-03T22:57:55.340Z,97132.45
2018-02-03T23:00:22.999Z,97134.03
2018-02-03T23:02:56.198Z,97143.86
2018-02-03T23:05:23.898Z,97141.20
2018-02-03T23:07:51.605Z,97150.41
2018-02-03T23:10:19.340Z,97152.02
2018-02-03T23:12:47.065Z,97142.14
2018-02-03T23:15:14.756Z,97149.89
2018-02-03T23:17:42.456Z,97147.22
2018-02-03T23:20:10.135Z,97155.74
2018-02-03T23:22:38.170Z,97153.58
2018-02-03T23:25:05.869Z,97161.31
2018-02-03T23:27:33.598Z,97161.30
2018-02-03T23:30:01.268Z,97161.66
2018-02-03T23:32:28.969Z,97165.23
2018-02-03T23:34:56.643Z,97168.20
2018-02-03T23:37:24.572Z,97167.25
2018-02-03T23:39:52.249Z,97171.93
2018-02-03T23:42:19.975Z,97170.64
2018-02-03T23:44:47.695Z,97175.52
2018-02-03T23:47:15.384Z,97170.14
2018-02-03T23:49:43.091Z,97174.01
2018-02-03T23:52:10.781Z,97180.32
2018-02-03T23:54:38.700Z,97177.66
2018-02-03T23:57:06.383Z,97179.95
2018-02-03T23:59:34.057Z,97183.63
